Time;durP1;ratioP1;P1;durP2;ratioP2;P2;SDS_P1;SDS_P2;PMS_P1;PMS_P2;Temp;Humidity;BMP_temperature;BMP_pressure;BME280_temperature;BME280_humidity;BME280_pressure;Samples;Min_cycle;Max_cycle;Signal;HPM_P1;HPM_P2
2021/11/04 00:00:27;;;;;;;26.15;19.17;;;;;;;15.30;69.46;101538.75;5008530;28;103858;-48
2021/11/04 00:02:55;;;;;;;23.15;18.75;;;;;;;15.31;69.79;101534.06;5005187;28;102418;-49
2021/11/04 00:05:22;;;;;;;23.45;19.00;;;;;;;15.30;69.50;101533.25;5002722;28;102481;-47
2021/11/04 00:07:51;;;;;;;24.15;18.30;;;;;;;15.29;69.59;101530.78;5003648;28;102686;-48
2021/11/04 00:10:19;;;;;;;22.88;18.38;;;;;;;15.30;70.00;101537.94;4993080;28;103907;-48
2021/11/04 00:12:48;;;;;;;22.88;18.58;;;;;;;15.30;69.90;101537.94;5008241;28;101946;-49
2021/11/04 00:15:15;;;;;;;23.67;18.05;;;;;;;15.30;69.35;101529.69;5008749;28;102330;-47
2021/11/04 00:17:44;;;;;;;23.40;18.75;;;;;;;15.29;69.88;101531.63;4993355;28;102344;-47
2021/11/04 00:20:14;;;;;;;22.95;18.48;;;;;;;15.30;69.65;101546.16;5010333;28;103948;-46
2021/11/04 00:22:41;;;;;;;22.67;18.48;;;;;;;15.30;69.45;101543.41;5015806;28;103171;-47
2021/11/04 00:25:08;;;;;;;20.25;17.58;;;;;;;15.28;69.50;101543.69;5004210;28;102902;-47
2021/11/04 00:27:36;;;;;;;20.63;18.23;;;;;;;15.30;69.49;101548.91;5005758;28;102323;-48
2021/11/04 00:30:06;;;;;;;22.02;18.17;;;;;;;15.29;69.69;101552.72;4988935;28;104093;-47
2021/11/04 00:32:34;;;;;;;26.75;18.95;;;;;;;15.30;69.40;101541.50;5008193;28;102476;-48
2021/11/04 00:35:01;;;;;;;23.25;18.27;;;;;;;15.29;69.37;101530.78;5010933;28;102414;-49
2021/11/04 00:37:27;;;;;;;21.45;18.17;;;;;;;15.29;69.68;101528.03;5017029;28;106067;-47
2021/11/04 00:39:54;;;;;;;21.15;17.45;;;;;;;15.30;69.29;101543.41;4986643;28;104095;-47
2021/11/04 00:42:21;;;;;;;22.35;18.23;;;;;;;15.29;69.54;101541.75;5012024;27;102537;-50
2021/11/04 00:44:47;;;;;;;20.58;17.38;;;;;;;15.29;69.77;101528.03;4988729;28;102434;-48
2021/11/04 00:47:15;;;;;;;21.85;17.02;;;;;;;15.28;69.54;101529.97;4989013;28;102265;-48
2021/11/04 00:49:42;;;;;;;24.58;19.02;;;;;;;15.29;69.44;101537.13;4992960;28;103976;-48
2021/11/04 00:52:08;;;;;;;21.25;18.20;;;;;;;15.28;69.52;101535.44;5010666;28;102236;-51
2021/11/04 00:54:34;;;;;;;24.52;18.77;;;;;;;15.28;69.52;101540.13;5005855;28;102478;-48
2021/11/04 00:57:01;;;;;;;21.63;18.17;;;;;;;15.28;69.79;101529.16;5012715;27;102406;-48
2021/11/04 00:59:28;;;;;;;20.88;17.98;;;;;;;15.29;69.50;101536.25;5003812;27;104367;-49
2021/11/04 01:01:54;;;;;;;22.17;18.35;;;;;;;15.28;69.62;101540.94;5005887;27;102381;-53
2021/11/04 01:04:22;;;;;;;22.08;18.20;;;;;;;15.28;69.35;101537.38;5011393;27;102571;-49
2021/11/04 01:06:49;;;;;;;22.67;18.77;;;;;;;15.28;69.57;101537.38;5009141;28;102689;-51
2021/11/04 01:09:33;;;;;;;24.38;18.25;;;;;;;15.28;69.87;101534.63;5013111;28;103999;-50
2021/11/04 01:11:59;;;;;;;19.90;16.98;;;;;;;15.27;69.78;101544.78;5006699;28;102238;-47
2021/11/04 01:14:26;;;;;;;24.85;19.48;;;;;;;15.29;69.49;101547.22;5018240;28;102507;-47
2021/11/04 01:16:53;;;;;;;22.58;17.42;;;;;;;15.27;69.49;101533.81;5007072;27;103088;-50
2021/11/04 01:19:19;;;;;;;23.10;18.83;;;;;;;15.28;69.67;101531.91;5010731;28;102952;-47
2021/11/04 01:21:47;;;;;;;20.42;18.10;;;;;;;15.28;69.50;101526.41;5013361;27;102467;-50
2021/11/04 01:24:13;;;;;;;24.65;18.33;;;;;;;15.28;69.68;101518.19;5010747;28;103624;-49
2021/11/04 01:26:40;;;;;;;22.45;17.80;;;;;;;15.27;69.46;101511.06;5014642;28;102251;-50
2021/11/04 01:29:06;;;;;;;24.00;18.38;;;;;;;15.28;69.78;101510.78;5014245;27;103976;-49
2021/11/04 01:31:33;;;;;;;22.38;18.38;;;;;;;15.28;69.77;101515.44;5000032;28;102569;-47
2021/11/04 01:33:59;;;;;;;22.75;17.95;;;;;;;15.28;69.27;101512.69;5013470;27;102355;-48
2021/11/04 01:36:25;;;;;;;23.05;18.52;;;;;;;15.27;69.56;101514.63;5012903;28;102622;-47
2021/11/04 01:38:54;;;;;;;21.73;17.75;;;;;;;15.28;69.53;101523.66;5012528;27;103855;-48
2021/11/04 01:41:20;;;;;;;21.65;17.25;;;;;;;15.27;69.47;101522.84;5010890;28;103201;-48
2021/11/04 01:43:48;;;;;;;20.35;17.13;;;;;;;15.27;69.79;101520.13;5011551;27;102409;-48
2021/11/04 01:46:19;;;;;;;19.98;16.83;;;;;;;15.28;69.78;101518.19;5013609;28;102237;-48
2021/11/04 01:48:45;;;;;;;21.13;17.80;;;;;;;15.28;69.41;101523.66;5012941;28;103906;-49
2021/11/04 01:51:12;;;;;;;22.52;16.92;;;;;;;15.27;69.54;101528.34;5009008;27;102119;-48
2021/11/04 01:53:38;;;;;;;23.38;17.15;;;;;;;15.27;69.91;101528.34;5005024;28;102696;-50
2021/11/04 01:56:07;;;;;;;22.30;17.98;;;;;;;15.27;69.42;101522.84;5008735;27;102651;-47
2021/11/04 01:58:33;;;;;;;22.57;17.73;;;;;;;15.27;69.73;101522.84;5013367;28;103738;-47
2021/11/04 02:00:59;;;;;;;20.70;16.50;;;;;;;15.28;69.41;101540.94;5010823;27;102171;-47
2021/11/04 02:03:32;;;;;;;25.42;17.70;;;;;;;15.28;69.59;101545.59;5009622;27;102560;-48
2021/11/04 02:06:08;;;;;;;23.08;17.92;;;;;;;15.27;69.85;101552.19;5010399;28;102125;-48
2021/11/04 02:08:41;;;;;;;21.40;17.50;;;;;;;15.28;69.68;101551.09;5007024;28;103884;-48
2021/11/04 02:11:13;;;;;;;23.83;18.10;;;;;;;15.28;69.81;101554.66;5015840;28;102458;-50
2021/11/04 02:13:46;;;;;;;20.08;16.80;;;;;;;15.27;69.72;101550.28;5022344;27;102304;-48
2021/11/04 02:16:15;;;;;;;21.15;17.00;;;;;;;15.28;69.72;101545.59;5016738;28;102060;-48
2021/11/04 02:18:42;;;;;;;21.33;17.35;;;;;;;15.28;69.54;101545.59;5010723;27;104018;-47
2021/11/04 02:21:13;;;;;;;26.38;18.40;;;;;;;15.27;69.78;101543.97;5007204;28;102397;-50
2021/11/04 02:23:48;;;;;;;22.02;17.75;;;;;;;15.28;69.89;101548.34;5008800;28;104810;-49
2021/11/04 02:26:16;;;;;;;21.27;17.08;;;;;;;15.28;69.50;101545.59;5015093;28;102228;-50
2021/11/04 02:28:44;;;;;;;21.52;17.40;;;;;;;15.27;69.77;101555.75;5001033;28;103924;-47
2021/11/04 02:31:11;;;;;;;21.23;17.40;;;;;;;15.27;69.57;101555.75;5001264;28;105528;-49
2021/11/04 02:33:39;;;;;;;21.77;17.42;;;;;;;15.28;69.57;101568.34;5000617;28;102244;-47
2021/11/04 02:36:07;;;;;;;20.95;17.33;;;;;;;15.27;69.49;101574.97;5014822;28;102245;-48
2021/11/04 02:38:35;;;;;;;19.52;16.75;;;;;;;15.27;69.64;101583.19;5012025;28;104258;-51
2021/11/04 02:41:04;;;;;;;19.23;16.27;;;;;;;15.28;69.48;101581.25;5013293;27;102738;-47
2021/11/04 02:43:34;;;;;;;20.17;16.55;;;;;;;15.28;69.94;101573.03;5010189;28;102301;-47
2021/11/04 02:46:02;;;;;;;21.77;17.23;;;;;;;15.28;69.90;101575.78;5022291;27;102644;-47
2021/11/04 02:48:29;;;;;;;21.23;17.23;;;;;;;15.27;69.56;101583.19;5014130;28;103838;-48
2021/11/04 02:50:56;;;;;;;21.08;17.15;;;;;;;15.28;69.67;101575.78;5011714;27;102567;-49
2021/11/04 02:53:25;;;;;;;19.38;15.45;;;;;;;15.28;69.93;101581.25;5010660;28;102459;-48
2021/11/04 02:55:53;;;;;;;20.02;16.30;;;;;;;15.28;69.45;101584.00;5018510;27;102948;-49
2021/11/04 02:58:20;;;;;;;20.38;16.80;;;;;;;15.28;69.52;101586.75;5012140;28;103991;-48
2021/11/04 03:00:51;;;;;;;19.33;15.55;;;;;;;15.28;69.81;101594.97;5003574;28;102263;-49
2021/11/04 03:03:17;;;;;;;20.20;16.48;;;;;;;15.28;69.55;101586.75;5009635;28;102532;-48
2021/11/04 03:05:45;;;;;;;19.20;16.33;;;;;;;15.27;69.71;101596.91;5007428;28;102671;-49
2021/11/04 03:08:12;;;;;;;17.65;15.68;;;;;;;15.28;69.82;101606.75;5014838;28;103860;-46
2021/11/04 03:10:39;;;;;;;18.38;15.98;;;;;;;15.28;69.66;101593.03;5011596;27;103099;-47
2021/11/04 03:13:06;;;;;;;19.05;15.88;;;;;;;15.27;69.46;101596.91;5011590;27;103136;-47
2021/11/04 03:15:36;;;;;;;17.15;15.18;;;;;;;15.28;69.81;101605.94;5023437;28;102752;-50
2021/11/04 03:18:05;;;;;;;18.85;15.55;;;;;;;15.28;69.58;101601.28;5007796;28;103820;-49
2021/11/04 03:20:32;;;;;;;20.30;16.55;;;;;;;15.28;69.33;101601.28;5013848;28;102465;-47
2021/11/04 03:23:01;;;;;;;16.87;15.07;;;;;;;15.27;69.52;101596.06;4997811;27;102442;-51
2021/11/04 03:25:28;;;;;;;19.63;16.50;;;;;;;15.28;69.53;101595.78;5010255;27;102523;-48
2021/11/04 03:27:56;;;;;;;20.13;15.60;;;;;;;15.27;69.47;101593.34;5010978;28;104091;-49
2021/11/04 03:30:25;;;;;;;21.20;16.75;;;;;;;15.27;69.64;101598.81;5013929;27;102334;-49
2021/11/04 03:32:51;;;;;;;;;;;;;;;15.27;69.78;101594.16;5010875;28;103407;-48
2021/11/04 03:35:20;;;;;;;20.02;16.65;;;;;;;15.28;69.81;101600.44;5013722;28;102264;-48
2021/11/04 03:37:51;;;;;;;20.38;16.38;;;;;;;15.28;69.81;101584.00;5008772;28;103884;-50
2021/11/04 03:40:19;;;;;;;18.60;15.65;;;;;;;15.28;69.58;101582.06;5013667;28;102178;-51
2021/11/04 03:42:48;;;;;;;19.10;16.08;;;;;;;15.27;69.68;101599.63;5013910;28;102262;-51
2021/11/04 03:45:15;;;;;;;19.90;15.93;;;;;;;15.28;69.58;101611.41;5015359;28;102348;-48
2021/11/04 03:47:43;;;;;;;19.45;16.60;;;;;;;15.28;69.82;101617.72;5012700;27;103974;-48
2021/11/04 03:50:11;;;;;;;18.93;16.43;;;;;;;15.28;69.85;101633.34;5008880;27;102562;-48
2021/11/04 03:52:41;;;;;;;19.50;15.98;;;;;;;15.28;69.79;101619.66;5011703;28;102656;-48
2021/11/04 03:55:09;;;;;;;19.65;16.40;;;;;;;15.28;69.79;101627.88;5013225;27;102458;-49
2021/11/04 03:57:39;;;;;;;20.40;16.73;;;;;;;15.27;69.99;101621.56;5014462;27;103925;-47
2021/11/04 04:00:06;;;;;;;;;;;;;;;15.28;69.99;101619.66;5016121;27;102232;-46
2021/11/04 04:02:33;;;;;;;19.88;16.58;;;;;;;15.28;69.95;101627.88;5015310;28;102718;-47
2021/11/04 04:05:00;;;;;;;20.27;16.33;;;;;;;15.28;69.96;101633.34;5012811;28;102762;-48
2021/11/04 04:07:27;;;;;;;19.27;16.40;;;;;;;15.27;69.49;101631.72;5014685;27;103998;-48
2021/11/04 04:09:55;;;;;;;19.65;16.30;;;;;;;15.28;69.72;101612.25;5011923;28;102171;-49
2021/11/04 04:12:22;;;;;;;19.73;17.00;;;;;;;15.28;69.62;101612.25;5015061;27;102500;-47
2021/11/04 04:14:49;;;;;;;19.95;16.75;;;;;;;15.28;70.01;101611.41;5017061;27;102172;-53
2021/11/04 04:17:16;;;;;;;20.38;17.15;;;;;;;15.28;69.90;101617.72;5015161;27;104020;-48
2021/11/04 04:19:43;;;;;;;21.90;17.05;;;;;;;15.29;69.62;101618.53;5017364;28;102382;-48
2021/11/04 04:22:09;;;;;;;20.33;16.60;;;;;;;15.28;69.55;101617.72;5019817;27;102494;-47
2021/11/04 04:24:36;;;;;;;19.58;16.80;;;;;;;15.28;69.53;101616.91;5016698;27;102421;-47
2021/11/04 04:27:04;;;;;;;19.58;16.85;;;;;;;15.30;69.64;101625.69;5009446;28;103718;-48
2021/11/04 04:29:31;;;;;;;20.40;16.58;;;;;;;15.29;69.46;101629.50;5013457;28;102587;-47
2021/11/04 04:31:59;;;;;;;18.65;16.02;;;;;;;15.28;69.72;101625.13;5006014;28;102970;-47
2021/11/04 04:34:25;;;;;;;20.13;16.25;;;;;;;15.28;69.84;101616.91;5005202;28;102278;-48
2021/11/04 04:36:52;;;;;;;18.88;16.67;;;;;;;15.29;69.73;101618.53;5016256;27;103839;-49
2021/11/04 04:39:18;;;;;;;19.33;16.58;;;;;;;15.28;69.98;101614.16;5016092;27;102121;-47
2021/11/04 04:41:44;;;;;;;20.35;17.05;;;;;;;15.29;69.87;101618.53;5011731;28;102637;-51
2021/11/04 04:44:12;;;;;;;20.38;17.65;;;;;;;15.28;69.33;101625.13;5017498;28;102425;-49
2021/11/04 04:46:38;;;;;;;18.50;16.45;;;;;;;15.29;69.71;101635.00;5018218;27;103251;-47
2021/11/04 04:49:05;;;;;;;20.00;16.05;;;;;;;15.28;69.78;101631.44;5015499;27;102755;-50
2021/11/04 04:51:32;;;;;;;19.67;16.88;;;;;;;15.29;69.45;101635.00;5016068;28;102111;-47
2021/11/04 04:53:58;;;;;;;18.73;16.40;;;;;;;15.28;69.96;101634.19;5019567;27;102191;-46
2021/11/04 04:56:25;;;;;;;19.70;16.73;;;;;;;15.29;69.79;101637.72;5016794;28;103898;-46
2021/11/04 04:58:52;;;;;;;19.35;16.55;;;;;;;15.28;69.77;101642.41;5015285;27;102621;-47
2021/11/04 05:01:20;;;;;;;19.92;16.83;;;;;;;15.28;69.88;101645.16;5010696;28;102181;-46
2021/11/04 05:03:47;;;;;;;19.27;16.48;;;;;;;15.28;69.88;101644.34;5011988;27;102236;-47
2021/11/04 05:06:13;;;;;;;19.85;17.13;;;;;;;15.29;69.57;101645.97;5001339;28;103767;-47
2021/11/04 05:08:40;;;;;;;19.63;17.10;;;;;;;15.28;69.56;101647.06;5015785;28;102398;-48
2021/11/04 05:11:06;;;;;;;19.98;17.20;;;;;;;15.28;69.95;101647.06;5013676;28;102541;-48
2021/11/04 05:13:33;;;;;;;20.42;17.13;;;;;;;15.28;69.82;101650.63;5012493;27;106454;-47
2021/11/04 05:16:00;;;;;;;20.33;17.90;;;;;;;15.28;69.49;101652.56;5012615;28;104676;-47
2021/11/04 05:18:28;;;;;;;19.90;17.65;;;;;;;15.28;69.99;101656.13;5010276;28;102614;-47
2021/11/04 05:20:54;;;;;;;18.88;16.75;;;;;;;15.27;69.63;101653.66;5013823;27;102500;-47
2021/11/04 05:23:21;;;;;;;20.15;17.15;;;;;;;15.28;69.68;101660.78;5008829;28;102385;-48
2021/11/04 05:25:47;;;;;;;19.83;17.00;;;;;;;15.29;70.00;101667.91;5010456;28;104016;-47
2021/11/04 05:28:14;;;;;;;19.58;17.35;;;;;;;15.27;70.08;101659.97;5013708;28;102607;-51
2021/11/04 05:30:42;;;;;;;19.85;17.35;;;;;;;15.27;69.65;101670.13;5013633;27;102672;-48
2021/11/04 05:33:09;;;;;;;20.38;17.90;;;;;;;15.28;69.94;101671.75;5015847;28;102374;-47
2021/11/04 05:35:36;;;;;;;20.13;17.27;;;;;;;15.28;69.99;101688.22;5010445;27;104879;-47
2021/11/04 05:38:03;;;;;;;20.48;17.98;;;;;;;15.28;70.13;101693.69;5006605;27;109353;-47
2021/11/04 05:40:30;;;;;;;20.75;17.48;;;;;;;15.28;69.97;101683.53;5003188;27;102368;-47
2021/11/04 05:42:57;;;;;;;19.88;16.85;;;;;;;15.27;69.76;101667.38;5011793;28;102831;-48
2021/11/04 05:45:23;;;;;;;19.80;17.05;;;;;;;15.28;69.98;101677.25;4999188;28;104202;-47
2021/11/04 05:47:49;;;;;;;20.10;17.13;;;;;;;15.27;69.58;101698.34;5003798;28;102593;-47
2021/11/04 05:50:18;;;;;;;20.73;16.88;;;;;;;15.27;69.57;101684.66;5013445;27;102363;-49
2021/11/04 05:52:46;;;;;;;19.17;17.05;;;;;;;15.29;69.71;101684.34;5009053;28;102588;-48
2021/11/04 05:55:12;;;;;;;20.45;18.17;;;;;;;15.30;70.01;101672.31;5006529;28;103856;-48
2021/11/04 05:57:39;;;;;;;19.33;16.52;;;;;;;15.29;69.71;101667.91;5002621;28;102676;-48
2021/11/04 06:00:07;;;;;;;20.25;17.63;;;;;;;15.30;70.14;101658.59;5003184;28;102505;-51
2021/11/04 06:02:33;;;;;;;20.08;17.90;;;;;;;15.29;69.42;101656.94;5012372;28;103004;-48
2021/11/04 06:05:00;;;;;;;19.20;17.05;;;;;;;15.29;69.95;101656.94;5005555;28;103870;-49
2021/11/04 06:07:28;;;;;;;20.88;17.25;;;;;;;15.30;70.15;101664.09;5014258;28;102453;-47
2021/11/04 06:09:56;;;;;;;20.73;18.15;;;;;;;15.30;70.20;101664.91;5002312;28;102803;-50
2021/11/04 06:12:23;;;;;;;21.17;17.17;;;;;;;15.29;69.97;101668.75;5001589;28;102609;-48
2021/11/04 06:14:53;;;;;;;19.60;17.48;;;;;;;15.29;70.11;101674.22;5005628;28;104221;-50
2021/11/04 06:17:20;;;;;;;19.98;16.70;;;;;;;15.30;69.82;101667.63;5006647;28;102150;-48
2021/11/04 06:19:47;;;;;;;19.95;17.70;;;;;;;15.31;70.20;101668.47;5015823;27;102297;-47
2021/11/04 06:22:13;;;;;;;20.67;18.27;;;;;;;15.31;70.10;101682.16;5015473;27;102238;-47
2021/11/04 06:24:40;;;;;;;22.58;17.75;;;;;;;15.31;70.10;101676.69;5016102;28;103902;-50
2021/11/04 06:27:07;;;;;;;20.65;17.58;;;;;;;15.30;69.77;101683.28;4999627;28;102359;-50
2021/11/04 06:29:34;;;;;;;22.52;18.98;;;;;;;15.29;69.85;101693.44;5004715;27;102030;-47
2021/11/04 06:32:00;;;;;;;23.80;18.15;;;;;;;15.30;69.77;101692.31;5005552;28;102111;-47
2021/11/04 06:34:27;;;;;;;21.88;18.42;;;;;;;15.30;69.93;101688.75;5005393;28;103923;-48
2021/11/04 06:36:53;;;;;;;21.40;18.98;;;;;;;15.31;70.06;101690.41;5002954;27;102686;-46
2021/11/04 06:39:19;;;;;;;20.83;18.50;;;;;;;15.30;69.86;101691.50;5003703;27;102265;-48
2021/11/04 06:41:46;;;;;;;20.35;18.15;;;;;;;15.30;69.76;101697.81;5009282;27;102638;-48
2021/11/04 06:44:14;;;;;;;20.63;18.23;;;;;;;15.31;69.93;101699.44;5010681;28;103787;-48
2021/11/04 06:46:43;;;;;;;20.27;18.08;;;;;;;15.32;70.41;101703.00;5009743;27;102129;-48
2021/11/04 06:49:11;;;;;;;;;;;;;;;15.32;70.02;101705.75;5018067;27;102144;-49
2021/11/04 06:51:41;;;;;;;20.65;18.30;;;;;;;15.32;69.96;101700.25;5006778;28;103729;-47
2021/11/04 06:54:11;;;;;;;21.38;18.42;;;;;;;15.32;70.17;101698.34;5007314;28;103985;-46
2021/11/04 06:56:40;;;;;;;21.90;18.55;;;;;;;15.32;70.06;101700.25;5010215;28;102307;-48
2021/11/04 06:59:16;;;;;;;20.05;17.95;;;;;;;15.32;70.30;101698.34;5013864;28;102217;-51
2021/11/04 07:01:49;;;;;;;20.52;17.33;;;;;;;15.32;70.20;101700.25;5014234;28;102133;-48
2021/11/04 07:04:25;;;;;;;19.90;17.65;;;;;;;15.33;69.96;101701.94;5010488;28;103915;-51
2021/11/04 07:07:00;;;;;;;22.75;19.00;;;;;;;15.34;70.07;101709.84;5008741;28;105064;-49
2021/11/04 07:09:28;;;;;;;21.73;18.25;;;;;;;15.34;69.71;101704.38;5009284;27;102315;-47
2021/11/04 07:11:56;;;;;;;23.30;19.50;;;;;;;15.33;70.13;101708.22;5011150;28;102831;-47
2021/11/04 07:14:27;;;;;;;22.42;18.98;;;;;;;15.34;70.04;101703.56;5004875;27;103866;-48
2021/11/04 07:16:54;;;;;;;21.02;18.17;;;;;;;15.34;70.20;101700.81;5007970;28;102391;-47
2021/11/04 07:19:22;;;;;;;21.50;18.40;;;;;;;15.34;70.38;101703.56;5012560;27;102017;-48
2021/11/04 07:21:59;;;;;;;21.33;17.95;;;;;;;15.34;69.99;101707.13;5016526;28;102806;-48
2021/11/04 07:24:30;;;;;;;21.90;18.30;;;;;;;15.34;70.38;101709.03;5007829;27;104159;-49
2021/11/04 07:27:06;;;;;;;20.20;18.00;;;;;;;15.34;69.91;101709.03;5011022;27;102229;-49
2021/11/04 07:29:40;;;;;;;21.00;18.27;;;;;;;15.34;70.19;101711.78;5014152;28;102211;-47
2021/11/04 07:32:09;;;;;;;23.15;18.33;;;;;;;15.35;69.68;101707.94;5003755;28;102576;-47
2021/11/04 07:34:36;;;;;;;;;;;;;;;15.34;70.35;101700.81;5003902;28;103716;-47
2021/11/04 07:37:04;;;;;;;22.17;17.65;;;;;;;15.33;70.29;101702.75;5014210;27;102180;-48
2021/11/04 07:39:32;;;;;;;20.00;17.85;;;;;;;15.34;70.07;101695.31;5013722;28;102261;-48
2021/11/04 07:41:58;;;;;;;21.90;18.15;;;;;;;15.34;70.08;101693.41;5008340;28;102987;-48
2021/11/04 07:44:27;;;;;;;19.58;17.17;;;;;;;15.34;70.03;101689.84;5002639;28;103940;-48
2021/11/04 07:46:56;;;;;;;20.38;17.70;;;;;;;15.34;70.36;101696.16;5007295;28;103795;-48
2021/11/04 07:49:22;;;;;;;20.98;18.27;;;;;;;15.35;70.33;101691.47;5012218;27;104652;-49
2021/11/04 07:51:48;;;;;;;21.25;18.38;;;;;;;15.34;70.33;101687.09;5008852;27;102427;-48
2021/11/04 07:54:15;;;;;;;20.67;18.45;;;;;;;15.34;69.95;101695.31;5004941;28;103873;-48
2021/11/04 07:56:41;;;;;;;20.30;17.75;;;;;;;15.34;70.00;101693.41;5006984;27;103690;-47
2021/11/04 07:59:09;;;;;;;18.63;16.60;;;;;;;15.34;70.20;101682.44;5004574;28;102159;-47
2021/11/04 08:01:35;;;;;;;20.00;17.25;;;;;;;15.34;69.94;101687.09;5001021;28;103166;-47
2021/11/04 08:04:03;;;;;;;20.10;17.98;;;;;;;15.35;70.03;101694.22;5013522;27;103751;-48
2021/11/04 08:06:31;;;;;;;19.45;16.88;;;;;;;15.34;70.18;101704.38;5007027;28;102848;-47
2021/11/04 08:08:58;;;;;;;20.38;16.98;;;;;;;15.34;70.00;101698.06;5008044;28;102579;-47
2021/11/04 08:11:24;;;;;;;18.42;16.48;;;;;;;15.34;70.02;101698.06;5010436;27;102391;-47
2021/11/04 08:13:51;;;;;;;18.67;16.65;;;;;;;15.34;70.13;101698.06;5002580;28;103876;-49
2021/11/04 08:16:17;;;;;;;21.40;16.92;;;;;;;15.34;70.57;101692.59;4993825;28;103098;-47
2021/11/04 08:18:45;;;;;;;18.48;16.50;;;;;;;15.34;70.16;101698.88;5004277;28;102192;-47
2021/11/04 08:21:13;;;;;;;18.73;16.52;;;;;;;15.34;70.00;101704.38;5006148;28;102226;-46
2021/11/04 08:23:40;;;;;;;19.45;17.15;;;;;;;15.34;70.15;101687.09;5006730;27;103894;-47
2021/11/04 08:26:07;;;;;;;21.00;17.63;;;;;;;15.34;70.24;101678.88;5005775;28;104267;-47
2021/11/04 08:28:34;;;;;;;19.15;16.83;;;;;;;15.34;70.07;101676.13;5010413;28;102002;-51
2021/11/04 08:31:00;;;;;;;17.50;15.45;;;;;;;15.34;70.51;101670.66;5009146;28;102601;-46
2021/11/04 08:33:26;;;;;;;16.73;14.93;;;;;;;15.34;70.11;101665.97;5006206;27;105394;-47
2021/11/04 08:35:53;;;;;;;17.20;15.10;;;;;;;15.36;70.31;101662.94;5010880;28;102264;-47
2021/11/04 08:38:21;;;;;;;18.17;15.65;;;;;;;15.34;70.51;101652.25;5010529;28;102166;-47
2021/11/04 08:40:47;;;;;;;18.08;15.77;;;;;;;15.35;70.71;101653.06;5005132;28;102524;-47
2021/11/04 08:43:13;;;;;;;18.40;15.90;;;;;;;15.35;70.60;101656.63;5013030;27;103927;-47
2021/11/04 08:45:40;;;;;;;17.55;15.25;;;;;;;15.37;70.58;101659.13;5012483;27;102528;-47
2021/11/04 08:48:07;;;;;;;17.42;14.80;;;;;;;15.37;70.54;101656.38;5008315;27;102563;-47
2021/11/04 08:50:34;;;;;;;17.35;15.48;;;;;;;15.38;70.69;101661.56;5007387;28;102801;-47
2021/11/04 08:53:00;;;;;;;16.90;15.00;;;;;;;15.39;70.47;101665.13;5013112;27;103845;-49
2021/11/04 08:55:28;;;;;;;16.85;14.15;;;;;;;15.39;70.79;101665.94;5010864;28;102326;-47
2021/11/04 08:57:54;;;;;;;17.67;14.82;;;;;;;15.40;70.63;101653.06;5009197;27;103013;-47
2021/11/04 09:00:21;;;;;;;17.42;15.52;;;;;;;15.41;70.68;101660.19;5006871;27;102497;-47
2021/11/04 09:02:49;;;;;;;17.93;15.10;;;;;;;15.41;70.56;101649.22;5009811;28;104051;-46
2021/11/04 09:05:16;;;;;;;17.02;14.30;;;;;;;15.41;70.88;101643.75;5003045;28;102467;-47
2021/11/04 09:07:44;;;;;;;16.38;14.50;;;;;;;15.42;70.85;101645.38;5007215;27;102560;-46
2021/11/04 09:10:12;;;;;;;16.63;14.93;;;;;;;15.42;70.90;101645.38;5008372;27;102111;-46
2021/11/04 09:12:41;;;;;;;16.80;14.07;;;;;;;15.43;70.66;101652.47;5012579;27;103796;-46
2021/11/04 09:15:09;;;;;;;16.80;15.00;;;;;;;15.42;70.63;101650.84;5016758;27;102159;-47
2021/11/04 09:17:36;;;;;;;15.68;14.05;;;;;;;15.44;70.43;101645.91;5006549;28;102373;-48
2021/11/04 09:20:04;;;;;;;15.52;13.38;;;;;;;15.44;70.67;101651.41;5012008;27;102471;-47
2021/11/04 09:22:32;;;;;;;16.40;13.85;;;;;;;15.43;70.71;101636.03;5003952;27;104336;-47
2021/11/04 09:24:58;;;;;;;14.80;13.30;;;;;;;15.44;70.55;101634.94;5017907;27;102421;-47
2021/11/04 09:27:24;;;;;;;15.18;13.57;;;;;;;15.44;70.93;101632.22;5009652;27;102348;-47
2021/11/04 09:29:52;;;;;;;15.20;13.60;;;;;;;15.44;70.55;101629.47;5008307;28;102573;-47
2021/11/04 09:32:19;;;;;;;15.82;14.07;;;;;;;15.44;70.52;101626.72;5006547;28;103832;-47
2021/11/04 09:34:46;;;;;;;15.23;12.70;;;;;;;15.46;71.07;101623.69;5009874;28;102233;-47
2021/11/04 09:37:12;;;;;;;15.15;13.32;;;;;;;15.45;70.73;101625.59;5009384;28;102231;-47
2021/11/04 09:39:39;;;;;;;16.58;14.00;;;;;;;15.45;71.03;101625.59;5013214;28;102729;-48
2021/11/04 09:42:06;;;;;;;14.50;12.88;;;;;;;15.45;70.60;101633.03;5012922;27;103881;-47
2021/11/04 09:44:33;;;;;;;14.48;12.95;;;;;;;15.46;71.01;101638.22;5012303;27;102541;-47
2021/11/04 09:47:01;;;;;;;15.23;13.50;;;;;;;15.46;70.83;101629.97;5010742;28;102118;-49
2021/11/04 09:49:29;;;;;;;16.17;13.95;;;;;;;15.47;71.05;101637.13;5017776;27;102454;-47
2021/11/04 09:51:56;;;;;;;16.33;14.02;;;;;;;15.47;70.97;101634.38;4999916;27;103746;-48
2021/11/04 09:54:23;;;;;;;17.40;14.25;;;;;;;15.46;70.85;101613.53;5003667;28;102378;-48
2021/11/04 09:56:50;;;;;;;16.52;14.38;;;;;;;15.47;70.74;101631.66;5007856;27;102440;-47
2021/11/04 09:59:16;;;;;;;18.02;14.50;;;;;;;15.46;70.67;101629.97;5014107;27;102172;-47
2021/11/04 10:01:45;;;;;;;15.93;14.23;;;;;;;15.47;70.94;101628.91;5003673;27;104008;-47
2021/11/04 10:04:13;;;;;;;16.10;14.07;;;;;;;15.47;71.00;101637.13;5009055;28;102448;-46
2021/11/04 10:06:40;;;;;;;17.92;13.57;;;;;;;15.47;70.99;101628.91;5016355;27;102279;-49
2021/11/04 10:09:09;;;;;;;15.95;14.25;;;;;;;15.47;70.83;101631.66;5008136;28;102827;-47
2021/11/04 10:11:41;;;;;;;15.85;14.23;;;;;;;15.47;70.93;101634.38;5008632;27;103830;-47
2021/11/04 10:14:10;;;;;;;15.90;13.90;;;;;;;15.46;70.84;101635.47;5007338;28;102860;-47
2021/11/04 10:16:38;;;;;;;15.07;13.52;;;;;;;15.47;71.32;101637.13;5010968;28;103017;-47
2021/11/04 10:19:07;;;;;;;15.77;13.75;;;;;;;15.48;71.23;101637.94;5006728;27;102604;-47
2021/11/04 10:21:36;;;;;;;;;;;;;;;15.47;70.71;101631.66;5012654;28;104018;-47
2021/11/04 10:24:05;;;;;;;14.77;13.17;;;;;;;15.47;70.92;101628.06;5015028;27;102281;-48
2021/11/04 10:26:36;;;;;;;15.70;14.05;;;;;;;15.47;71.04;101619.81;5006141;28;102631;-49
2021/11/04 10:29:06;;;;;;;18.67;14.65;;;;;;;15.46;70.99;101619.00;5015438;28;102214;-47
2021/11/04 10:31:35;;;;;;;;;;;;;;;15.46;70.98;101616.25;5003567;28;104439;-48
2021/11/04 10:34:01;;;;;;;;;;;;;;;15.46;71.14;101608.03;5009114;28;102193;-47
2021/11/04 10:36:28;;;;;;;16.10;13.52;;;;;;;15.45;70.78;101617.38;5008210;28;102405;-48
2021/11/04 10:38:57;;;;;;;14.90;13.30;;;;;;;15.46;71.04;101609.97;5013771;27;102234;-47
2021/11/04 10:41:27;;;;;;;15.85;14.13;;;;;;;15.47;70.86;101609.69;5010540;28;103801;-47
2021/11/04 10:43:56;;;;;;;15.73;14.13;;;;;;;15.46;70.61;101604.47;5014376;28;102167;-47
2021/11/04 10:46:24;;;;;;;16.45;14.05;;;;;;;15.45;71.05;101600.91;5013839;28;102539;-47
2021/11/04 10:48:56;;;;;;;15.90;14.20;;;;;;;15.45;70.73;101600.91;5015287;28;102229;-48
2021/11/04 10:51:23;;;;;;;16.75;13.57;;;;;;;15.44;70.88;101599.28;5002337;28;103906;-48
2021/11/04 10:53:58;;;;;;;15.32;13.48;;;;;;;15.45;70.81;101603.66;5005933;28;102250;-47
2021/11/04 10:56:25;;;;;;;15.15;13.35;;;;;;;15.45;70.86;101598.19;5008983;27;102094;-48
2021/11/04 10:58:57;;;;;;;16.33;14.63;;;;;;;15.44;70.75;101599.28;5005999;28;102540;-50
2021/11/04 11:01:35;;;;;;;15.18;13.57;;;;;;;15.45;70.56;101595.44;5004040;28;103700;-50
2021/11/04 11:04:07;;;;;;;15.52;13.77;;;;;;;15.44;70.72;101609.44;5007480;28;102035;-49
2021/11/04 11:06:37;;;;;;;16.75;14.48;;;;;;;15.44;70.74;101599.28;5006762;28;103967;-50